createdAt,value
2018-09-26T00:00:13.119Z,71.00
2018-09-26T00:00:44.167Z,70.10
2018-09-26T00:01:15.224Z,70.10
2018-09-26T00:01:46.279Z,70.00
2018-09-26T00:02:17.326Z,70.00
2018-09-26T00:02:48.375Z,70.00
2018-09-26T00:03:19.451Z,69.90
2018-09-26T00:03:50.494Z,70.00
2018-09-26T00:04:21.540Z,70.00
2018-09-26T00:04:52.582Z,70.10
2018-09-26T00:05:23.627Z,70.00
2018-09-26T00:05:54.671Z,70.10
2018-09-26T00:06:25.732Z,70.00
2018-09-26T00:06:56.779Z,70.00
2018-09-26T00:07:37.128Z,70.00
2018-09-26T00:08:09.146Z,70.00
2018-09-26T00:08:40.183Z,69.90
2018-09-26T00:09:11.232Z,70.00
2018-09-26T00:09:42.282Z,70.00
2018-09-26T00:10:13.328Z,70.00
2018-09-26T00:10:44.371Z,69.90
2018-09-26T00:11:15.419Z,69.90
2018-09-26T00:11:46.467Z,70.00
2018-09-26T00:12:17.515Z,69.90
2018-09-26T00:12:48.556Z,69.80
2018-09-26T00:13:19.608Z,69.80
2018-09-26T00:13:50.667Z,69.80
2018-09-26T00:14:21.711Z,69.80
2018-09-26T00:14:52.755Z,69.80
2018-09-26T00:15:23.806Z,69.80
2018-09-26T00:15:54.851Z,69.80
2018-09-26T00:16:25.906Z,69.80
2018-09-26T00:16:56.951Z,69.70
2018-09-26T00:17:27.999Z,69.80
2018-09-26T00:17:59.044Z,69.80
2018-09-26T00:18:30.091Z,69.80
2018-09-26T00:19:01.141Z,69.80
2018-09-26T00:19:32.183Z,69.70
2018-09-26T00:20:03.229Z,69.80
2018-09-26T00:20:34.271Z,70.00
2018-09-26T00:21:05.311Z,70.00
2018-09-26T00:21:36.359Z,70.00
2018-09-26T00:22:07.416Z,69.90
2018-09-26T00:22:38.459Z,70.00
2018-09-26T00:23:09.516Z,70.10
2018-09-26T00:23:40.563Z,70.10
2018-09-26T00:24:11.620Z,70.00
2018-09-26T00:24:42.668Z,70.10
2018-09-26T00:25:13.717Z,70.70
2018-09-26T00:25:44.760Z,70.10
2018-09-26T00:26:15.803Z,69.90
2018-09-26T00:26:46.868Z,70.00
2018-09-26T00:27:17.956Z,70.00
2018-09-26T00:27:49.072Z,70.10
2018-09-26T00:28:20.120Z,70.00
2018-09-26T00:28:51.179Z,70.00
2018-09-26T00:29:22.219Z,70.00
2018-09-26T00:29:53.266Z,70.80
2018-09-26T00:30:24.315Z,69.90
2018-09-26T00:30:55.356Z,69.90
2018-09-26T00:31:26.468Z,69.80
2018-09-26T00:31:57.536Z,69.80
2018-09-26T00:32:28.584Z,69.80
2018-09-26T00:32:59.631Z,69.80
2018-09-26T00:33:30.678Z,69.80
2018-09-26T00:34:01.724Z,69.80
2018-09-26T00:34:32.791Z,69.80
2018-09-26T00:35:03.828Z,69.90
2018-09-26T00:35:34.875Z,69.90
2018-09-26T00:36:06.051Z,69.80
2018-09-26T00:36:36.963Z,69.80
2018-09-26T00:37:08.018Z,69.90
2018-09-26T00:37:39.064Z,69.90
2018-09-26T00:38:10.109Z,69.80
2018-09-26T00:38:41.174Z,69.90
2018-09-26T00:39:12.195Z,69.80
2018-09-26T00:39:43.246Z,69.80
2018-09-26T00:40:14.313Z,69.80
2018-09-26T00:40:45.351Z,69.80
2018-09-26T00:41:16.398Z,69.80
2018-09-26T00:41:47.461Z,69.80
2018-09-26T00:42:18.516Z,69.80
2018-09-26T00:42:49.567Z,69.80
2018-09-26T00:43:20.606Z,69.80
2018-09-26T00:43:51.656Z,69.80
2018-09-26T00:44:22.703Z,69.80
2018-09-26T00:44:53.748Z,69.80
2018-09-26T00:45:24.795Z,69.70
2018-09-26T00:45:55.843Z,69.80
2018-09-26T00:46:26.886Z,69.70
2018-09-26T00:46:57.980Z,69.70
2018-09-26T00:47:29.031Z,69.80
2018-09-26T00:48:00.083Z,69.80
2018-09-26T00:48:31.128Z,69.80
2018-09-26T00:49:02.166Z,69.80
2018-09-26T00:49:33.230Z,69.80
2018-09-26T00:50:04.271Z,69.80
2018-09-26T00:50:35.318Z,69.80
2018-09-26T00:51:06.362Z,69.70
2018-09-26T00:51:37.409Z,69.70
2018-09-26T00:52:08.460Z,69.80
2018-09-26T00:52:39.512Z,69.90
2018-09-26T00:53:10.554Z,69.80
2018-09-26T00:53:41.607Z,69.80
2018-09-26T00:54:12.650Z,69.70
2018-09-26T00:54:43.697Z,69.80
2018-09-26T00:55:14.738Z,69.80
2018-09-26T00:55:45.782Z,69.80
2018-09-26T00:56:16.834Z,69.80
2018-09-26T00:56:47.879Z,69.70
2018-09-26T00:57:18.939Z,69.70
2018-09-26T00:57:49.989Z,69.70
2018-09-26T00:58:21.126Z,69.60
2018-09-26T00:58:52.172Z,69.60
2018-09-26T00:59:23.220Z,69.60
2018-09-26T00:59:54.267Z,69.70
2018-09-26T01:00:25.308Z,69.80
2018-09-26T01:00:56.358Z,69.80
2018-09-26T01:01:27.403Z,69.80
2018-09-26T01:01:58.451Z,69.80
2018-09-26T01:02:29.512Z,69.90
2018-09-26T01:03:00.559Z,69.90
2018-09-26T01:03:31.613Z,69.90
2018-09-26T01:04:02.656Z,69.90
2018-09-26T01:04:33.705Z,69.80
2018-09-26T01:05:04.752Z,69.70
2018-09-26T01:05:35.796Z,69.70
2018-09-26T01:06:06.843Z,69.70
2018-09-26T01:06:37.891Z,69.70
2018-09-26T01:07:08.931Z,69.70
2018-09-26T01:07:39.990Z,69.70
2018-09-26T01:08:11.043Z,69.70
2018-09-26T01:08:42.089Z,69.60
2018-09-26T01:09:13.132Z,69.70
2018-09-26T01:09:44.171Z,69.70
2018-09-26T01:10:15.216Z,69.70
2018-09-26T01:10:46.261Z,69.70
2018-09-26T01:11:17.306Z,69.80
2018-09-26T01:11:48.350Z,69.80
2018-09-26T01:12:19.404Z,69.70
2018-09-26T01:12:50.464Z,69.70
2018-09-26T01:13:21.512Z,69.70
2018-09-26T01:13:52.551Z,69.70
2018-09-26T01:14:23.596Z,69.60
2018-09-26T01:14:54.640Z,69.50
2018-09-26T01:15:25.697Z,69.50
2018-09-26T01:15:56.726Z,69.50
2018-09-26T01:16:27.776Z,69.40
2018-09-26T01:16:59.050Z,69.40
2018-09-26T01:17:30.099Z,69.20
2018-09-26T01:18:01.162Z,69.10
2018-09-26T01:18:32.310Z,69.00
2018-09-26T01:19:03.359Z,68.90
2018-09-26T01:19:34.407Z,69.00
2018-09-26T01:20:05.447Z,69.10
2018-09-26T01:20:36.489Z,69.10
2018-09-26T01:21:07.535Z,69.00
2018-09-26T01:21:38.582Z,69.00
2018-09-26T01:22:09.627Z,68.90
2018-09-26T01:22:40.676Z,69.00
2018-09-26T01:23:11.722Z,69.10
2018-09-26T01:23:42.815Z,69.20
2018-09-26T01:24:13.856Z,69.80
2018-09-26T01:24:44.903Z,69.10
2018-09-26T01:25:15.952Z,69.10
2018-09-26T01:25:46.999Z,69.10
2018-09-26T01:26:18.042Z,69.10
2018-09-26T01:26:49.091Z,69.20
2018-09-26T01:27:20.136Z,69.20
2018-09-26T01:27:51.179Z,69.20
2018-09-26T01:28:22.231Z,69.20
2018-09-26T01:28:53.282Z,69.30
2018-09-26T01:29:24.327Z,69.30
2018-09-26T01:29:55.379Z,69.40
2018-09-26T01:30:26.419Z,69.20
2018-09-26T01:30:57.460Z,69.30
2018-09-26T01:31:28.503Z,69.40
2018-09-26T01:31:59.547Z,69.40
2018-09-26T01:32:30.683Z,69.40
2018-09-26T01:33:01.740Z,69.40
2018-09-26T01:33:32.786Z,69.40
2018-09-26T01:34:03.831Z,69.40
2018-09-26T01:34:34.912Z,70.10
2018-09-26T01:35:05.963Z,69.40
2018-09-26T01:35:36.998Z,69.40
2018-09-26T01:36:08.042Z,69.40
2018-09-26T01:36:39.099Z,69.40
2018-09-26T01:37:10.145Z,69.40
2018-09-26T01:37:41.187Z,69.40
2018-09-26T01:38:12.240Z,69.50
2018-09-26T01:38:43.287Z,69.40
2018-09-26T01:39:14.335Z,69.40
2018-09-26T01:39:45.382Z,69.40
2018-09-26T01:40:16.432Z,69.50
2018-09-26T01:40:47.474Z,70.30
2018-09-26T01:41:18.575Z,70.20
2018-09-26T01:41:49.563Z,70.20
2018-09-26T01:42:20.607Z,69.50
2018-09-26T01:42:51.651Z,69.50
2018-09-26T01:43:22.700Z,69.40
2018-09-26T01:43:53.799Z,69.20
2018-09-26T01:44:24.847Z,69.30
2018-09-26T01:44:55.891Z,69.20
2018-09-26T01:45:26.938Z,69.20
2018-09-26T01:45:57.987Z,69.30
2018-09-26T01:46:29.044Z,69.30
2018-09-26T01:47:00.096Z,69.10
2018-09-26T01:47:31.135Z,69.10
2018-09-26T01:48:02.181Z,69.20
2018-09-26T01:48:33.223Z,69.20
2018-09-26T01:49:04.278Z,69.20
2018-09-26T01:49:35.324Z,69.20
2018-09-26T01:50:06.612Z,69.20
2018-09-26T01:50:37.660Z,69.20
2018-09-26T01:51:08.704Z,69.20
2018-09-26T01:51:39.751Z,69.20
2018-09-26T01:52:10.791Z,69.20
2018-09-26T01:52:41.835Z,69.10
2018-09-26T01:53:12.878Z,69.10
2018-09-26T01:53:43.935Z,69.10
2018-09-26T01:54:14.984Z,69.00
2018-09-26T01:54:46.032Z,69.00
2018-09-26T01:55:17.079Z,69.10
2018-09-26T01:55:48.115Z,69.00
2018-09-26T01:56:19.168Z,69.00
2018-09-26T01:56:50.212Z,69.00
2018-09-26T01:57:21.259Z,69.00
2018-09-26T01:57:52.306Z,69.00
2018-09-26T01:58:23.354Z,69.00
2018-09-26T01:58:54.398Z,69.10
2018-09-26T01:59:25.447Z,69.00
2018-09-26T01:59:56.491Z,69.00
2018-09-26T02:00:27.534Z,69.00
2018-09-26T02:00:58.731Z,68.90
2018-09-26T02:01:29.775Z,68.90
2018-09-26T02:02:00.823Z,68.80
2018-09-26T02:02:31.863Z,69.00
2018-09-26T02:03:02.911Z,69.10
2018-09-26T02:03:33.979Z,69.00
2018-09-26T02:04:05.023Z,69.00
2018-09-26T02:04:36.073Z,69.00
2018-09-26T02:05:07.119Z,69.00
2018-09-26T02:05:38.158Z,69.10
2018-09-26T02:06:09.204Z,69.00
2018-09-26T02:06:40.339Z,69.00
2018-09-26T02:07:11.384Z,69.00
2018-09-26T02:07:42.428Z,69.00
2018-09-26T02:08:13.470Z,69.00
2018-09-26T02:08:44.526Z,69.00
2018-09-26T02:09:15.570Z,69.00
2018-09-26T02:09:46.625Z,69.00
2018-09-26T02:10:17.667Z,68.90
2018-09-26T02:10:48.708Z,68.90
2018-09-26T02:11:19.747Z,68.90
2018-09-26T02:11:50.802Z,69.80
2018-09-26T02:12:21.847Z,69.00
2018-09-26T02:12:52.891Z,69.00
2018-09-26T02:13:23.941Z,69.00
2018-09-26T02:13:55.030Z,69.00
2018-09-26T02:14:26.074Z,69.00
2018-09-26T02:14:57.120Z,69.00
2018-09-26T02:15:28.172Z,69.10
2018-09-26T02:15:59.227Z,69.10
2018-09-26T02:16:30.271Z,69.00
2018-09-26T02:17:01.316Z,69.10
2018-09-26T02:17:32.355Z,69.10
2018-09-26T02:18:03.414Z,69.00
2018-09-26T02:18:34.451Z,69.00
2018-09-26T02:19:05.517Z,69.00
2018-09-26T02:19:36.563Z,68.90
2018-09-26T02:20:07.623Z,68.80
2018-09-26T02:20:38.667Z,68.90
2018-09-26T02:21:09.710Z,68.80
2018-09-26T02:21:40.759Z,68.80
2018-09-26T02:22:11.888Z,68.80
2018-09-26T02:22:42.945Z,68.90
2018-09-26T02:23:13.978Z,69.60
2018-09-26T02:23:45.123Z,68.80
2018-09-26T02:24:16.079Z,68.80
2018-09-26T02:24:47.127Z,68.80
2018-09-26T02:25:18.176Z,69.70
2018-09-26T02:25:49.228Z,68.80
2018-09-26T02:26:20.272Z,68.80
2018-09-26T02:26:51.322Z,69.60
2018-09-26T02:27:22.363Z,68.80
2018-09-26T02:27:53.408Z,68.80
2018-09-26T02:28:24.452Z,68.80
2018-09-26T02:28:55.511Z,68.80
2018-09-26T02:29:26.556Z,68.80
2018-09-26T02:29:57.602Z,68.80
2018-09-26T02:30:28.644Z,68.80
2018-09-26T02:30:59.688Z,68.80
2018-09-26T02:31:30.736Z,68.80
2018-09-26T02:32:01.787Z,68.80
2018-09-26T02:32:32.831Z,68.80
2018-09-26T02:33:03.885Z,68.70
2018-09-26T02:33:34.914Z,68.70
2018-09-26T02:34:05.970Z,68.70
2018-09-26T02:34:37.014Z,68.70
2018-09-26T02:35:08.068Z,69.00
2018-09-26T02:35:39.120Z,68.70
2018-09-26T02:36:10.158Z,68.70
2018-09-26T02:36:41.210Z,68.70
2018-09-26T02:37:12.249Z,68.70
2018-09-26T02:37:43.287Z,68.70
2018-09-26T02:38:14.331Z,68.70
2018-09-26T02:38:45.379Z,68.70
2018-09-26T02:39:16.433Z,68.70
2018-09-26T02:39:47.479Z,68.70
2018-09-26T02:40:18.526Z,68.70
2018-09-26T02:40:49.571Z,68.20
2018-09-26T02:41:20.618Z,68.70
2018-09-26T02:41:51.658Z,68.70
2018-09-26T02:42:22.700Z,68.70
2018-09-26T02:42:53.743Z,68.70
2018-09-26T02:43:24.790Z,68.70
2018-09-26T02:43:55.840Z,68.70
2018-09-26T02:44:26.895Z,68.80
2018-09-26T02:44:57.941Z,68.80
2018-09-26T02:45:28.984Z,68.80
2018-09-26T02:46:00.034Z,68.70
2018-09-26T02:46:31.080Z,68.80
2018-09-26T02:47:02.124Z,68.80
2018-09-26T02:47:33.175Z,68.70
2018-09-26T02:48:04.216Z,68.70
2018-09-26T02:48:35.258Z,68.70
2018-09-26T02:49:06.326Z,68.60
2018-09-26T02:49:37.375Z,68.70
2018-09-26T02:50:08.418Z,68.70
2018-09-26T02:50:39.467Z,68.70
2018-09-26T02:51:10.510Z,68.80
2018-09-26T02:51:41.564Z,68.70
2018-09-26T02:52:12.623Z,68.70
2018-09-26T02:52:43.663Z,68.70
2018-09-26T02:53:14.720Z,68.70
2018-09-26T02:53:45.759Z,68.70
2018-09-26T02:54:16.819Z,68.70
2018-09-26T02:54:47.870Z,68.70
2018-09-26T02:55:18.915Z,68.70
2018-09-26T02:55:49.992Z,68.70
2018-09-26T02:56:21.005Z,68.00
2018-09-26T02:56:52.051Z,68.80
2018-09-26T02:57:23.110Z,68.70
2018-09-26T02:57:54.160Z,68.70
2018-09-26T02:58:25.213Z,68.80
2018-09-26T02:58:56.255Z,68.80
2018-09-26T02:59:27.307Z,68.80
2018-09-26T02:59:58.359Z,68.80
2018-09-26T03:00:29.399Z,68.80
2018-09-26T03:01:00.448Z,68.80
2018-09-26T03:01:31.491Z,68.80
2018-09-26T03:02:02.539Z,68.70
2018-09-26T03:02:33.595Z,68.70
2018-09-26T03:03:04.672Z,68.80
2018-09-26T03:03:35.720Z,68.70
2018-09-26T03:04:06.768Z,68.70
2018-09-26T03:04:37.820Z,68.70
2018-09-26T03:05:08.868Z,68.70
2018-09-26T03:05:39.919Z,68.70
2018-09-26T03:06:10.968Z,68.70
2018-09-26T03:06:42.018Z,68.70
2018-09-26T03:07:13.063Z,68.70
2018-09-26T03:07:44.106Z,68.70
2018-09-26T03:08:15.156Z,68.70
2018-09-26T03:08:46.201Z,68.70
2018-09-26T03:09:17.261Z,68.70
2018-09-26T03:09:48.298Z,68.70
2018-09-26T03:10:19.339Z,68.70
2018-09-26T03:10:50.433Z,69.10
2018-09-26T03:11:21.430Z,68.70
2018-09-26T03:11:52.566Z,68.70
2018-09-26T03:12:23.618Z,68.70
2018-09-26T03:12:54.724Z,68.80
2018-09-26T03:13:25.775Z,68.80
2018-09-26T03:13:56.812Z,68.80
2018-09-26T03:14:27.871Z,68.80
2018-09-26T03:14:58.932Z,68.80
2018-09-26T03:15:30.083Z,68.80
2018-09-26T03:16:01.126Z,68.70
2018-09-26T03:16:32.171Z,68.80
2018-09-26T03:17:03.212Z,68.80
2018-09-26T03:17:34.280Z,68.80
2018-09-26T03:18:05.307Z,68.80
2018-09-26T03:18:36.347Z,68.70
2018-09-26T03:19:07.394Z,68.70
2018-09-26T03:19:38.443Z,68.70
2018-09-26T03:20:09.492Z,68.70
2018-09-26T03:20:40.542Z,68.80
2018-09-26T03:21:11.592Z,68.80
2018-09-26T03:21:42.638Z,68.70
2018-09-26T03:22:13.692Z,68.70
2018-09-26T03:22:44.735Z,68.70
2018-09-26T03:23:15.774Z,68.70
2018-09-26T03:23:46.823Z,68.70
2018-09-26T03:24:17.867Z,68.70
2018-09-26T03:24:48.916Z,68.70
2018-09-26T03:25:19.962Z,68.70
2018-09-26T03:25:50.999Z,68.80
2018-09-26T03:26:22.039Z,68.70
2018-09-26T03:26:53.088Z,68.70
2018-09-26T03:27:24.153Z,68.70
2018-09-26T03:27:55.172Z,68.70
2018-09-26T03:28:26.219Z,68.80
2018-09-26T03:28:57.263Z,68.80
2018-09-26T03:29:28.310Z,68.80
2018-09-26T03:29:59.367Z,68.80
2018-09-26T03:30:30.411Z,68.90
2018-09-26T03:31:01.447Z,68.90
2018-09-26T03:31:32.496Z,68.90
2018-09-26T03:32:03.540Z,68.90
2018-09-26T03:32:34.585Z,69.00
2018-09-26T03:33:05.628Z,68.90
2018-09-26T03:33:36.730Z,69.00
2018-09-26T03:34:07.715Z,69.00
2018-09-26T03:34:38.760Z,68.90
2018-09-26T03:35:09.811Z,68.80
2018-09-26T03:35:40.851Z,68.80
2018-09-26T03:36:11.899Z,68.80
2018-09-26T03:36:42.963Z,68.80
2018-09-26T03:37:13.992Z,68.80
2018-09-26T03:37:45.036Z,68.80
2018-09-26T03:38:16.085Z,68.80
2018-09-26T03:38:47.123Z,68.80
2018-09-26T03:39:18.166Z,68.80
2018-09-26T03:39:49.224Z,68.80
2018-09-26T03:40:20.268Z,68.70
2018-09-26T03:40:51.312Z,68.80
2018-09-26T03:41:22.359Z,68.80
2018-09-26T03:41:53.407Z,68.70
2018-09-26T03:42:24.450Z,68.70
2018-09-26T03:42:55.505Z,68.70
2018-09-26T03:43:26.552Z,68.70
2018-09-26T03:43:57.599Z,68.70
2018-09-26T03:44:28.639Z,68.50
2018-09-26T03:44:59.696Z,68.50
2018-09-26T03:45:30.752Z,68.50
2018-09-26T03:46:01.792Z,68.50
2018-09-26T03:46:32.848Z,68.50
2018-09-26T03:47:03.888Z,68.50
2018-09-26T03:47:34.931Z,68.60
2018-09-26T03:48:05.985Z,68.60
2018-09-26T03:48:37.031Z,68.60
2018-09-26T03:49:08.071Z,68.70
2018-09-26T03:49:39.111Z,68.60
2018-09-26T03:50:10.164Z,68.60
2018-09-26T03:50:41.216Z,68.60
2018-09-26T03:51:12.264Z,68.60
2018-09-26T03:51:43.315Z,68.60
2018-09-26T03:52:14.407Z,68.60
2018-09-26T03:52:45.454Z,68.60
2018-09-26T03:53:16.508Z,68.70
2018-09-26T03:53:47.562Z,68.60
2018-09-26T03:54:18.603Z,68.50
2018-09-26T03:54:49.651Z,68.50
2018-09-26T03:55:20.704Z,68.50
2018-09-26T03:55:51.757Z,68.50
2018-09-26T03:56:22.800Z,68.20
2018-09-26T03:56:53.851Z,68.10
2018-09-26T03:57:24.903Z,68.00
2018-09-26T03:57:55.942Z,67.90
2018-09-26T03:58:26.993Z,67.80
2018-09-26T03:58:58.035Z,67.80
2018-09-26T03:59:29.090Z,67.90
2018-09-26T04:00:00.151Z,68.00
2018-09-26T04:00:31.225Z,67.80
2018-09-26T04:01:02.274Z,67.90
2018-09-26T04:01:33.320Z,68.00
2018-09-26T04:02:04.363Z,68.10
2018-09-26T04:02:35.408Z,68.10
2018-09-26T04:03:06.830Z,68.10
2018-09-26T04:03:37.863Z,68.00
2018-09-26T04:04:08.902Z,68.00
2018-09-26T04:04:39.946Z,67.90
2018-09-26T04:05:10.995Z,68.00
2018-09-26T04:05:42.048Z,67.90
2018-09-26T04:06:13.098Z,68.00
2018-09-26T04:06:44.142Z,68.00
2018-09-26T04:07:15.190Z,68.00
2018-09-26T04:07:46.227Z,67.80
2018-09-26T04:08:17.274Z,67.80
2018-09-26T04:08:48.317Z,67.90
2018-09-26T04:09:19.359Z,67.30
2018-09-26T04:09:50.406Z,67.80
2018-09-26T04:10:21.453Z,67.80
2018-09-26T04:10:52.560Z,67.90
2018-09-26T04:11:23.588Z,67.80
2018-09-26T04:11:54.644Z,67.70
2018-09-26T04:12:25.689Z,67.70
2018-09-26T04:12:56.783Z,67.60
2018-09-26T04:13:27.768Z,67.50
2018-09-26T04:13:58.823Z,67.50
2018-09-26T04:14:29.923Z,67.50
2018-09-26T04:15:00.967Z,67.40
2018-09-26T04:15:32.077Z,67.40
2018-09-26T04:16:03.079Z,67.40
2018-09-26T04:16:34.125Z,67.40
2018-09-26T04:17:05.180Z,67.40
2018-09-26T04:17:36.216Z,67.30
2018-09-26T04:18:07.472Z,67.20
2018-09-26T04:18:38.522Z,67.30
2018-09-26T04:19:09.594Z,67.20
2018-09-26T04:19:40.644Z,67.20
2018-09-26T04:20:11.744Z,67.30
2018-09-26T04:20:42.751Z,67.40
2018-09-26T04:21:13.828Z,67.20
2018-09-26T04:21:44.871Z,67.20
2018-09-26T04:22:15.914Z,67.30
2018-09-26T04:22:46.967Z,67.40
2018-09-26T04:23:18.001Z,67.40
2018-09-26T04:23:49.042Z,67.40
2018-09-26T04:24:20.110Z,67.50
2018-09-26T04:24:51.234Z,67.50
2018-09-26T04:25:22.281Z,67.60
2018-09-26T04:25:53.332Z,67.60
2018-09-26T04:26:24.458Z,67.50
2018-09-26T04:26:55.650Z,67.50
2018-09-26T04:27:26.591Z,67.70
2018-09-26T04:27:57.528Z,67.70
2018-09-26T04:28:28.600Z,67.70
2018-09-26T04:28:59.746Z,67.70
2018-09-26T04:29:30.750Z,67.70
2018-09-26T04:30:01.847Z,67.70
2018-09-26T04:30:33.003Z,67.70
2018-09-26T04:31:03.908Z,67.70
2018-09-26T04:31:34.955Z,67.70
2018-09-26T04:32:06.235Z,67.70
2018-09-26T04:32:37.356Z,67.80
2018-09-26T04:33:08.589Z,67.80
2018-09-26T04:33:39.421Z,67.80
2018-09-26T04:34:10.419Z,67.70
2018-09-26T04:34:41.471Z,67.70
2018-09-26T04:35:12.519Z,67.80
2018-09-26T04:35:43.569Z,67.80
2018-09-26T04:36:14.611Z,67.80
2018-09-26T04:36:45.656Z,67.80
2018-09-26T04:37:16.702Z,67.80
2018-09-26T04:37:47.749Z,67.80
2018-09-26T04:38:18.797Z,67.80
2018-09-26T04:38:49.958Z,67.80
2018-09-26T04:39:20.887Z,67.80
2018-09-26T04:39:51.935Z,67.90
2018-09-26T04:40:22.981Z,68.00
2018-09-26T04:40:54.024Z,67.90
2018-09-26T04:41:25.071Z,68.00
2018-09-26T04:41:56.124Z,68.00
2018-09-26T04:42:27.172Z,67.90
2018-09-26T04:42:58.215Z,67.90
2018-09-26T04:43:29.324Z,67.80
2018-09-26T04:44:00.380Z,67.80
2018-09-26T04:44:31.422Z,67.80
2018-09-26T04:45:02.530Z,67.80
2018-09-26T04:45:33.587Z,67.90
2018-09-26T04:46:04.635Z,67.80
2018-09-26T04:46:35.682Z,67.80
2018-09-26T04:47:06.851Z,67.80
2018-09-26T04:47:37.894Z,67.90
2018-09-26T04:48:08.971Z,67.90
2018-09-26T04:48:40.013Z,67.80
2018-09-26T04:49:11.056Z,67.80
2018-09-26T04:49:42.103Z,67.80
2018-09-26T04:50:13.160Z,67.80
2018-09-26T04:50:44.227Z,67.80
2018-09-26T04:51:15.259Z,67.80
2018-09-26T04:51:46.314Z,67.80
2018-09-26T04:52:17.359Z,68.40
2018-09-26T04:52:48.414Z,67.70
2018-09-26T04:53:19.455Z,67.60
2018-09-26T04:53:50.501Z,67.70
2018-09-26T04:54:21.548Z,67.70
2018-09-26T04:54:52.596Z,67.60
2018-09-26T04:55:23.649Z,67.50
2018-09-26T04:55:54.692Z,67.70
2018-09-26T04:56:25.742Z,67.70
2018-09-26T04:56:56.787Z,67.60
2018-09-26T04:57:27.885Z,67.70
2018-09-26T04:57:58.992Z,67.60
2018-09-26T04:58:29.959Z,67.60
2018-09-26T04:59:01.035Z,67.50
2018-09-26T04:59:32.084Z,67.60
2018-09-26T05:00:03.133Z,67.60
2018-09-26T05:00:34.170Z,67.70
2018-09-26T05:01:05.220Z,68.40
2018-09-26T05:01:36.275Z,67.60
2018-09-26T05:02:07.350Z,67.60
2018-09-26T05:02:38.393Z,68.40
2018-09-26T05:03:09.433Z,67.70
2018-09-26T05:03:40.503Z,67.70
2018-09-26T05:04:11.539Z,67.70
2018-09-26T05:04:42.586Z,68.00
2018-09-26T05:05:13.626Z,67.70
2018-09-26T05:05:44.679Z,67.70
2018-09-26T05:06:15.739Z,67.70
2018-09-26T05:06:46.884Z,67.70
2018-09-26T05:07:17.915Z,67.80
2018-09-26T05:07:48.963Z,67.60
2018-09-26T05:08:20.044Z,67.70
2018-09-26T05:08:51.093Z,67.60
2018-09-26T05:09:22.123Z,67.60
2018-09-26T05:09:53.171Z,67.50
2018-09-26T05:10:24.222Z,68.40
2018-09-26T05:10:55.273Z,68.40
2018-09-26T05:11:26.332Z,67.50
2018-09-26T05:11:57.376Z,67.50
2018-09-26T05:12:28.414Z,67.70
2018-09-26T05:12:59.467Z,67.60
2018-09-26T05:13:30.524Z,67.50
2018-09-26T05:14:01.574Z,67.60
2018-09-26T05:14:32.616Z,67.60
2018-09-26T05:15:03.663Z,67.70
2018-09-26T05:15:34.707Z,67.50
2018-09-26T05:16:05.759Z,67.70
2018-09-26T05:16:36.825Z,67.70
2018-09-26T05:17:07.867Z,67.70
2018-09-26T05:17:38.914Z,67.60
2018-09-26T05:18:09.963Z,67.50
2018-09-26T05:18:41.006Z,67.50
2018-09-26T05:19:12.055Z,67.50
2018-09-26T05:19:43.104Z,68.10
2018-09-26T05:20:14.154Z,67.70
2018-09-26T05:20:45.204Z,67.70
2018-09-26T05:21:16.257Z,67.70
2018-09-26T05:21:47.306Z,67.60
2018-09-26T05:22:18.352Z,67.50
2018-09-26T05:22:49.444Z,67.50
2018-09-26T05:23:20.470Z,67.40
2018-09-26T05:23:51.526Z,67.30
2018-09-26T05:24:22.568Z,67.20
2018-09-26T05:24:53.612Z,67.10
2018-09-26T05:25:24.658Z,67.00
2018-09-26T05:25:55.708Z,67.00
2018-09-26T05:26:26.750Z,67.00
2018-09-26T05:26:57.808Z,67.00
2018-09-26T05:27:28.872Z,67.10
2018-09-26T05:27:59.919Z,67.10
2018-09-26T05:28:31.163Z,67.10
2018-09-26T05:29:02.187Z,66.40
2018-09-26T05:29:33.229Z,68.00
2018-09-26T05:30:04.283Z,67.10
2018-09-26T05:30:35.329Z,67.10
2018-09-26T05:31:06.379Z,67.10
2018-09-26T05:31:37.421Z,67.10
2018-09-26T05:32:08.475Z,67.10
2018-09-26T05:32:39.529Z,67.10
2018-09-26T05:33:10.571Z,67.10
2018-09-26T05:33:41.615Z,67.00
2018-09-26T05:34:12.663Z,67.10
2018-09-26T05:34:43.711Z,67.20
2018-09-26T05:35:14.759Z,67.20
2018-09-26T05:35:45.810Z,67.20
2018-09-26T05:36:16.861Z,67.20
2018-09-26T05:36:47.916Z,67.20
2018-09-26T05:37:18.960Z,67.20
2018-09-26T05:37:49.999Z,67.30
2018-09-26T05:38:21.042Z,67.20
2018-09-26T05:38:52.107Z,67.20
2018-09-26T05:39:23.152Z,67.20
2018-09-26T05:39:54.199Z,67.20
2018-09-26T05:40:25.260Z,67.20
2018-09-26T05:40:56.318Z,67.20
2018-09-26T05:41:27.359Z,67.20
2018-09-26T05:41:58.412Z,67.20
2018-09-26T05:42:29.466Z,67.30
2018-09-26T05:43:00.549Z,67.30
2018-09-26T05:43:31.594Z,67.40
2018-09-26T05:44:02.641Z,67.40
2018-09-26T05:44:33.687Z,67.40
2018-09-26T05:45:04.730Z,67.40
2018-09-26T05:45:35.779Z,67.40
2018-09-26T05:46:06.832Z,67.30
2018-09-26T05:46:37.879Z,67.40
2018-09-26T05:47:08.953Z,67.20
2018-09-26T05:47:39.996Z,67.20
2018-09-26T05:48:11.035Z,66.90
2018-09-26T05:48:42.080Z,67.20
2018-09-26T05:49:13.138Z,67.20
2018-09-26T05:49:44.186Z,67.10
2018-09-26T05:50:15.522Z,67.20
2018-09-26T05:50:46.535Z,67.10
2018-09-26T05:51:17.706Z,67.10
2018-09-26T05:51:48.731Z,67.20
2018-09-26T05:52:19.778Z,68.10
2018-09-26T05:52:50.826Z,67.40
2018-09-26T05:53:21.878Z,67.40
2018-09-26T05:53:52.922Z,68.10
2018-09-26T05:54:23.962Z,67.20
2018-09-26T05:54:55.008Z,67.20
2018-09-26T05:55:26.060Z,67.20
2018-09-26T05:55:57.104Z,67.20
2018-09-26T05:56:28.147Z,67.20
2018-09-26T05:56:59.199Z,67.20
2018-09-26T05:57:30.255Z,67.20
2018-09-26T05:58:01.300Z,67.20
2018-09-26T05:58:32.357Z,67.20
2018-09-26T05:59:03.403Z,67.20
2018-09-26T05:59:34.470Z,67.20
2018-09-26T06:00:05.487Z,66.80
2018-09-26T06:00:36.536Z,67.10
2018-09-26T06:01:07.583Z,67.10
2018-09-26T06:01:38.636Z,67.10
2018-09-26T06:02:09.683Z,67.10
2018-09-26T06:02:40.789Z,67.10
2018-09-26T06:03:11.829Z,67.10
2018-09-26T06:03:42.878Z,67.10
2018-09-26T06:04:13.927Z,66.30
2018-09-26T06:04:44.988Z,67.00
2018-09-26T06:05:16.053Z,66.80
2018-09-26T06:05:47.078Z,66.70
2018-09-26T06:06:18.127Z,66.70
2018-09-26T06:06:49.182Z,66.80
2018-09-26T06:07:20.226Z,66.80
2018-09-26T06:07:51.275Z,66.80
2018-09-26T06:08:22.323Z,67.50
2018-09-26T06:08:53.371Z,66.70
2018-09-26T06:09:24.443Z,66.80
2018-09-26T06:09:55.509Z,66.80
2018-09-26T06:10:26.547Z,66.70
2018-09-26T06:10:57.590Z,66.80
2018-09-26T06:11:28.645Z,66.80
2018-09-26T06:11:59.696Z,66.80
2018-09-26T06:12:30.743Z,66.80
2018-09-26T06:13:01.935Z,67.00
2018-09-26T06:13:32.862Z,67.00
2018-09-26T06:14:03.915Z,66.90
2018-09-26T06:14:34.968Z,66.80
2018-09-26T06:15:06.010Z,66.80
2018-09-26T06:15:37.057Z,67.00
2018-09-26T06:16:08.099Z,67.10
2018-09-26T06:16:39.151Z,67.00
2018-09-26T06:17:10.202Z,67.00
2018-09-26T06:17:41.255Z,67.10
2018-09-26T06:18:12.307Z,67.00
2018-09-26T06:18:43.360Z,67.10
2018-09-26T06:19:14.411Z,67.00
2018-09-26T06:19:45.456Z,67.10
2018-09-26T06:20:16.510Z,67.00
2018-09-26T06:20:47.559Z,67.10
2018-09-26T06:21:18.611Z,67.10
2018-09-26T06:21:49.650Z,67.10
2018-09-26T06:22:20.694Z,67.70
2018-09-26T06:22:51.763Z,67.00
2018-09-26T06:23:22.811Z,67.00
2018-09-26T06:23:53.862Z,67.00
2018-09-26T06:24:24.907Z,67.00
2018-09-26T06:24:55.960Z,67.10
2018-09-26T06:25:27.012Z,67.10
2018-09-26T06:25:58.054Z,67.00
2018-09-26T06:26:29.100Z,67.00
2018-09-26T06:27:00.147Z,67.10
2018-09-26T06:27:31.199Z,67.20
2018-09-26T06:28:02.255Z,67.20
2018-09-26T06:28:33.303Z,67.20
2018-09-26T06:29:04.350Z,67.20
2018-09-26T06:29:35.390Z,67.70
2018-09-26T06:30:06.559Z,67.00
2018-09-26T06:30:37.607Z,67.10
2018-09-26T06:31:08.655Z,67.20
2018-09-26T06:31:39.704Z,67.20
2018-09-26T06:32:10.749Z,67.20
2018-09-26T06:32:41.808Z,67.20
2018-09-26T06:33:12.851Z,67.20
2018-09-26T06:33:43.895Z,67.20
2018-09-26T06:34:14.942Z,67.10
2018-09-26T06:34:45.994Z,67.10
2018-09-26T06:35:17.055Z,67.10
2018-09-26T06:35:48.103Z,67.10
2018-09-26T06:36:19.152Z,67.20
2018-09-26T06:36:50.200Z,67.10
2018-09-26T06:37:21.242Z,67.10
2018-09-26T06:37:52.299Z,67.10
2018-09-26T06:38:23.347Z,67.10
2018-09-26T06:38:54.391Z,67.80
2018-09-26T06:39:25.434Z,67.10
2018-09-26T06:39:56.487Z,67.10